KLHQ

Details ICAO KLHQ
Name FAIRFIELD CO
Region United States
Timezone America/New_York (UTC-5.0)
Plans Departing 11
Arriving 1
Stats Elevation 868 ft / 265 m (AMSL)
Location 39.755639° -82.657095°
Runways 1
Magnetic Variation 7.319° W
Sunrise 2017-12-18 12:48:03 UTC / 2017-12-18 07:48:03 Local
Sunset 2017-12-18 22:09:21 UTC / 2017-12-18 17:09:21 Local
Advertisement - Login to hide

Runways

ID Width Length Bearing (true) Bearing (mag) Surface Threshold Offset Overrun Length
10 75 ft / 23 m 4,993 ft / 1,522 m 94.04° 101.36° Asphalt 0 ft / 0 m 0 ft / 0 m
28 75 ft / 23 m 4,993 ft / 1,522 m 274.05° 281.37° Asphalt 279 ft / 85 m 0 ft / 0 m

Approach Navaids

Runway Type Ident Frequency Range Bearing (true) Bearing (mag) Slope Elevation
28 Localiser ILHQ 111.90 MHz 18 nm / 33 km 274.04° 281.36° - 852 ft / 260 m (AMSL)

Map

Weather


0- 5 10 15 20 25 30 35+ Temperature / ° C

Clouds and Precipitation
Forecast for 2017-12-19 00:00 UTC. Updated an hour ago

Ground ~20,000 ft ~40,000 ft Winds

METAR

KLHQ 181953Z AUTO 26006KT 10SM SCT018 OVC033 08/06 A3001 RMK AO2 SLP167 T00830056

TAF

Not found

Frequencies

Recorded 118.37 MHz ASOS
Clearance 121.65 MHz CLNC DEL
Unicom 122.72 MHz CTAF
Approach 132.30 MHz COLUMBUS APP/DEP
Warning: Do not use this data for real-world aviation or navigation. No guarantee of current accuracy is given.